KTPA/TPA METAR and TAF weather

Enter ICAO airport designator
Station Type Date Time Source
KTPA METAR 2020/07/11 00:53 UTC NOAA

KTPA 110053Z 29009KT 7SM SCT023TCU BKN190 BKN300 30/24 A2997 RMK AO2 SLP146 TCU ALQDS T03000239


Station Type Date Time Source
KTPA Decoded METAR 2020/07/11 00:53 UTC NOAA

TAMPA INTERNATIONAL AIRPORT , FL, United States (KTPA) 27-58N 082-32W 11M
Jul 10, 2020 - 08:53 PM EDT / 2020.07.11 0053 UTC
Wind: from the WNW (290 degrees) at 10 MPH (9 KT):0
Visibility: 7 mile(s):0
Sky conditions: mostly cloudy
Weather: Towering cumulus clouds observed
Temperature: 86.0 F (30.0 C)
Heat index: 94.6 F (34.8 C):1
Dew Point: 75.0 F (23.9 C)
Relative Humidity: 69%
Pressure (altimeter): 29.97 in. Hg (1014 hPa)
ob: KTPA 110053Z 29009KT 7SM SCT023TCU BKN190 BKN300 30/24 A2997 RMK AO2 SLP146 TCU ALQDS T03000239
cycle: 1

Station Type Date Time Source
KTPA TAF 2020/07/10 21:04 UTC NOAA

TAF
AMD KTPA 102102Z 1021/1124 29012KT P6SM FEW035 SCT250
FM110100 28007KT P6SM SCT025 SCT250
FM110900 26008KT P6SM VCSH SCT025 SCT250
FM111400 26008KT P6SM VCTS SCT025CB BKN050
FM111800 28010KT P6SM VCTS SCT030CB BKN050

Example: see airport list